sensor_id;sensor_type;location;lat;lon;timestamp;temperature;humidity
6106;DHT22;3083;51.508;7.966;2023-04-24T00:00:43;10.40;99.90
6106;DHT22;3083;51.508;7.966;2023-04-24T00:03:10;10.40;99.90
6106;DHT22;3083;51.508;7.966;2023-04-24T00:05:38;10.40;99.90
6106;DHT22;3083;51.508;7.966;2023-04-24T00:08:08;10.50;99.90
6106;DHT22;3083;51.508;7.966;2023-04-24T00:10:35;10.60;99.90
6106;DHT22;3083;51.508;7.966;2023-04-24T00:13:02;10.60;99.90
6106;DHT22;3083;51.508;7.966;2023-04-24T00:15:29;10.60;99.90
6106;DHT22;3083;51.508;7.966;2023-04-24T00:17:56;10.50;99.90
6106;DHT22;3083;51.508;7.966;2023-04-24T00:20:23;10.50;99.90
6106;DHT22;3083;51.508;7.966;2023-04-24T00:22:50;10.50;99.90
6106;DHT22;3083;51.508;7.966;2023-04-24T00:25:18;10.40;99.90
6106;DHT22;3083;51.508;7.966;2023-04-24T00:27:45;10.40;99.90
6106;DHT22;3083;51.508;7.966;2023-04-24T00:30:12;10.40;99.90
6106;DHT22;3083;51.508;7.966;2023-04-24T00:32:39;10.30;99.90
6106;DHT22;3083;51.508;7.966;2023-04-24T00:35:06;10.20;99.90
6106;DHT22;3083;51.508;7.966;2023-04-24T00:37:33;10.20;99.90
6106;DHT22;3083;51.508;7.966;2023-04-24T00:40:01;10.20;99.90
6106;DHT22;3083;51.508;7.966;2023-04-24T00:42:29;10.20;99.90
6106;DHT22;3083;51.508;7.966;2023-04-24T00:44:57;10.20;99.90
6106;DHT22;3083;51.508;7.966;2023-04-24T00:47:25;10.30;99.90
6106;DHT22;3083;51.508;7.966;2023-04-24T00:49:52;10.30;99.90
6106;DHT22;3083;51.508;7.966;2023-04-24T00:52:19;10.30;99.90
6106;DHT22;3083;51.508;7.966;2023-04-24T00:54:46;10.30;99.90
6106;DHT22;3083;51.508;7.966;2023-04-24T00:57:14;10.20;99.90
6106;DHT22;3083;51.508;7.966;2023-04-24T00:59:43;10.20;99.90
6106;DHT22;3083;51.508;7.966;2023-04-24T01:02:11;10.20;99.90
6106;DHT22;3083;51.508;7.966;2023-04-24T01:04:38;10.10;99.90
6106;DHT22;3083;51.508;7.966;2023-04-24T01:07:05;10.10;99.90
6106;DHT22;3083;51.508;7.966;2023-04-24T01:09:36;10.10;99.90
6106;DHT22;3083;51.508;7.966;2023-04-24T01:12:03;10.10;99.90
6106;DHT22;3083;51.508;7.966;2023-04-24T01:14:31;10.20;99.90
6106;DHT22;3083;51.508;7.966;2023-04-24T01:16:59;10.20;99.90
6106;DHT22;3083;51.508;7.966;2023-04-24T01:19:27;10.20;99.90
6106;DHT22;3083;51.508;7.966;2023-04-24T01:21:54;10.20;99.90
6106;DHT22;3083;51.508;7.966;2023-04-24T01:24:26;10.20;99.90
6106;DHT22;3083;51.508;7.966;2023-04-24T01:26:53;10.20;99.90
6106;DHT22;3083;51.508;7.966;2023-04-24T01:29:21;10.20;99.90
6106;DHT22;3083;51.508;7.966;2023-04-24T01:31:48;10.20;99.90
6106;DHT22;3083;51.508;7.966;2023-04-24T01:34:15;10.20;99.90
6106;DHT22;3083;51.508;7.966;2023-04-24T01:36:43;10.20;99.90
6106;DHT22;3083;51.508;7.966;2023-04-24T01:39:12;10.20;99.90
6106;DHT22;3083;51.508;7.966;2023-04-24T01:41:40;10.20;99.90
6106;DHT22;3083;51.508;7.966;2023-04-24T01:44:07;10.10;99.90
6106;DHT22;3083;51.508;7.966;2023-04-24T01:46:34;10.00;99.90
6106;DHT22;3083;51.508;7.966;2023-04-24T01:49:02;10.00;99.90
6106;DHT22;3083;51.508;7.966;2023-04-24T01:51:29;9.90;99.90
6106;DHT22;3083;51.508;7.966;2023-04-24T01:53:56;9.80;99.90
6106;DHT22;3083;51.508;7.966;2023-04-24T01:56:23;9.80;99.90
6106;DHT22;3083;51.508;7.966;2023-04-24T01:58:52;9.70;99.90
6106;DHT22;3083;51.508;7.966;2023-04-24T02:01:20;9.60;99.90
6106;DHT22;3083;51.508;7.966;2023-04-24T02:03:47;9.60;99.90
6106;DHT22;3083;51.508;7.966;2023-04-24T02:06:14;9.50;99.90
6106;DHT22;3083;51.508;7.966;2023-04-24T02:08:41;9.40;99.90
6106;DHT22;3083;51.508;7.966;2023-04-24T02:11:09;9.40;99.90
6106;DHT22;3083;51.508;7.966;2023-04-24T02:13:35;9.40;99.90
6106;DHT22;3083;51.508;7.966;2023-04-24T02:16:04;9.50;99.90
6106;DHT22;3083;51.508;7.966;2023-04-24T02:18:31;9.50;99.90
6106;DHT22;3083;51.508;7.966;2023-04-24T02:20:58;9.60;99.90
6106;DHT22;3083;51.508;7.966;2023-04-24T02:23:25;9.60;99.90
6106;DHT22;3083;51.508;7.966;2023-04-24T02:25:52;9.70;99.90
6106;DHT22;3083;51.508;7.966;2023-04-24T02:28:19;9.80;99.90
6106;DHT22;3083;51.508;7.966;2023-04-24T02:30:46;9.80;99.90
6106;DHT22;3083;51.508;7.966;2023-04-24T02:33:15;9.90;99.90
6106;DHT22;3083;51.508;7.966;2023-04-24T02:35:42;10.00;99.90
6106;DHT22;3083;51.508;7.966;2023-04-24T02:38:08;10.00;99.90
6106;DHT22;3083;51.508;7.966;2023-04-24T02:40:35;10.10;99.90
6106;DHT22;3083;51.508;7.966;2023-04-24T02:43:02;10.10;99.90
6106;DHT22;3083;51.508;7.966;2023-04-24T02:45:29;10.10;99.90
6106;DHT22;3083;51.508;7.966;2023-04-24T02:47:56;10.20;99.90
6106;DHT22;3083;51.508;7.966;2023-04-24T02:50:24;10.20;99.90
6106;DHT22;3083;51.508;7.966;2023-04-24T02:52:51;10.20;99.90
6106;DHT22;3083;51.508;7.966;2023-04-24T02:55:18;10.20;99.90
6106;DHT22;3083;51.508;7.966;2023-04-24T02:57:45;10.20;99.90
6106;DHT22;3083;51.508;7.966;2023-04-24T03:00:13;10.30;99.90
6106;DHT22;3083;51.508;7.966;2023-04-24T03:02:39;10.30;99.90
6106;DHT22;3083;51.508;7.966;2023-04-24T03:05:07;10.30;99.90
6106;DHT22;3083;51.508;7.966;2023-04-24T03:07:36;10.30;99.90
6106;DHT22;3083;51.508;7.966;2023-04-24T03:10:03;10.20;99.90
6106;DHT22;3083;51.508;7.966;2023-04-24T03:12:31;10.20;99.90
6106;DHT22;3083;51.508;7.966;2023-04-24T03:14:58;10.30;99.90
6106;DHT22;3083;51.508;7.966;2023-04-24T03:17:25;10.20;99.90
6106;DHT22;3083;51.508;7.966;2023-04-24T03:19:51;10.20;99.90
6106;DHT22;3083;51.508;7.966;2023-04-24T03:22:18;10.20;99.90
6106;DHT22;3083;51.508;7.966;2023-04-24T03:24:47;10.20;99.90
6106;DHT22;3083;51.508;7.966;2023-04-24T03:27:13;10.20;99.90
6106;DHT22;3083;51.508;7.966;2023-04-24T03:29:40;10.10;99.90
6106;DHT22;3083;51.508;7.966;2023-04-24T03:32:07;10.10;99.90
6106;DHT22;3083;51.508;7.966;2023-04-24T03:34:34;10.10;99.90
6106;DHT22;3083;51.508;7.966;2023-04-24T03:37:01;10.00;99.90
6106;DHT22;3083;51.508;7.966;2023-04-24T03:39:28;10.00;99.90
6106;DHT22;3083;51.508;7.966;2023-04-24T03:41:56;10.00;99.90
6106;DHT22;3083;51.508;7.966;2023-04-24T03:44:23;9.90;99.90
6106;DHT22;3083;51.508;7.966;2023-04-24T03:46:50;9.90;99.90
6106;DHT22;3083;51.508;7.966;2023-04-24T03:49:17;9.90;99.90
6106;DHT22;3083;51.508;7.966;2023-04-24T03:51:44;9.90;99.90
6106;DHT22;3083;51.508;7.966;2023-04-24T03:54:11;9.80;99.90
6106;DHT22;3083;51.508;7.966;2023-04-24T03:56:37;9.80;99.90
6106;DHT22;3083;51.508;7.966;2023-04-24T03:59:06;9.80;99.90
6106;DHT22;3083;51.508;7.966;2023-04-24T04:01:33;9.70;99.90
6106;DHT22;3083;51.508;7.966;2023-04-24T04:04:02;9.70;99.90
6106;DHT22;3083;51.508;7.966;2023-04-24T04:06:29;9.60;99.90
6106;DHT22;3083;51.508;7.966;2023-04-24T04:08:57;9.60;99.90
6106;DHT22;3083;51.508;7.966;2023-04-24T04:11:24;9.50;99.90
6106;DHT22;3083;51.508;7.966;2023-04-24T04:13:51;9.50;99.90
6106;DHT22;3083;51.508;7.966;2023-04-24T04:16:19;9.50;99.90
6106;DHT22;3083;51.508;7.966;2023-04-24T04:18:46;9.30;99.90
6106;DHT22;3083;51.508;7.966;2023-04-24T04:21:13;9.30;99.90
6106;DHT22;3083;51.508;7.966;2023-04-24T04:23:40;9.20;99.90
6106;DHT22;3083;51.508;7.966;2023-04-24T04:26:07;9.20;99.90
6106;DHT22;3083;51.508;7.966;2023-04-24T04:28:34;9.10;99.90
6106;DHT22;3083;51.508;7.966;2023-04-24T04:31:01;9.10;99.90
6106;DHT22;3083;51.508;7.966;2023-04-24T04:33:29;9.10;99.90
6106;DHT22;3083;51.508;7.966;2023-04-24T04:35:57;9.10;99.90
6106;DHT22;3083;51.508;7.966;2023-04-24T04:38:25;9.10;99.90
6106;DHT22;3083;51.508;7.966;2023-04-24T04:40:55;9.10;99.90
6106;DHT22;3083;51.508;7.966;2023-04-24T04:43:23;9.10;99.90
6106;DHT22;3083;51.508;7.966;2023-04-24T04:45:50;9.10;99.90
6106;DHT22;3083;51.508;7.966;2023-04-24T04:48:17;9.10;99.90
6106;DHT22;3083;51.508;7.966;2023-04-24T04:50:46;9.10;99.90
6106;DHT22;3083;51.508;7.966;2023-04-24T04:53:13;9.10;99.90
6106;DHT22;3083;51.508;7.966;2023-04-24T04:55:40;9.10;99.90
6106;DHT22;3083;51.508;7.966;2023-04-24T04:58:07;9.10;99.90
6106;DHT22;3083;51.508;7.966;2023-04-24T05:00:34;9.10;99.90
6106;DHT22;3083;51.508;7.966;2023-04-24T05:03:03;9.00;99.90
6106;DHT22;3083;51.508;7.966;2023-04-24T05:05:30;9.00;99.90
6106;DHT22;3083;51.508;7.966;2023-04-24T05:07:58;9.00;99.90
6106;DHT22;3083;51.508;7.966;2023-04-24T05:10:25;9.10;99.90
6106;DHT22;3083;51.508;7.966;2023-04-24T05:12:52;9.20;99.90
6106;DHT22;3083;51.508;7.966;2023-04-24T05:15:18;9.30;99.90
6106;DHT22;3083;51.508;7.966;2023-04-24T05:17:45;9.50;99.90
6106;DHT22;3083;51.508;7.966;2023-04-24T05:20:12;9.60;99.90
6106;DHT22;3083;51.508;7.966;2023-04-24T05:22:40;9.80;99.90
6106;DHT22;3083;51.508;7.966;2023-04-24T05:25:09;10.00;99.90
6106;DHT22;3083;51.508;7.966;2023-04-24T05:27:35;10.30;99.90
6106;DHT22;3083;51.508;7.966;2023-04-24T05:30:03;10.50;99.90
6106;DHT22;3083;51.508;7.966;2023-04-24T05:32:30;10.70;99.90
6106;DHT22;3083;51.508;7.966;2023-04-24T05:34:57;10.70;99.90
6106;DHT22;3083;51.508;7.966;2023-04-24T05:37:24;10.70;99.90
6106;DHT22;3083;51.508;7.966;2023-04-24T05:39:51;10.60;99.90
6106;DHT22;3083;51.508;7.966;2023-04-24T05:42:19;10.50;99.90
6106;DHT22;3083;51.508;7.966;2023-04-24T05:44:46;10.50;99.90
6106;DHT22;3083;51.508;7.966;2023-04-24T05:47:13;10.40;99.90
6106;DHT22;3083;51.508;7.966;2023-04-24T05:49:40;10.30;99.90
6106;DHT22;3083;51.508;7.966;2023-04-24T05:52:07;10.20;99.90
6106;DHT22;3083;51.508;7.966;2023-04-24T05:54:34;10.20;99.90
6106;DHT22;3083;51.508;7.966;2023-04-24T05:57:01;10.20;99.90
6106;DHT22;3083;51.508;7.966;2023-04-24T12:00:05;7.90;99.90
6106;DHT22;3083;51.508;7.966;2023-04-24T12:02:33;8.00;99.90
6106;DHT22;3083;51.508;7.966;2023-04-24T12:05:00;8.10;99.90
6106;DHT22;3083;51.508;7.966;2023-04-24T12:07:27;8.30;99.90
6106;DHT22;3083;51.508;7.966;2023-04-24T12:09:58;8.50;99.90
6106;DHT22;3083;51.508;7.966;2023-04-24T12:12:27;8.60;99.90
6106;DHT22;3083;51.508;7.966;2023-04-24T12:14:55;8.70;99.90
6106;DHT22;3083;51.508;7.966;2023-04-24T12:17:28;8.70;99.90
6106;DHT22;3083;51.508;7.966;2023-04-24T12:19:59;8.80;99.90
6106;DHT22;3083;51.508;7.966;2023-04-24T12:22:28;8.90;99.90
6106;DHT22;3083;51.508;7.966;2023-04-24T12:25:00;9.10;99.90
6106;DHT22;3083;51.508;7.966;2023-04-24T12:27:31;9.20;99.90
6106;DHT22;3083;51.508;7.966;2023-04-24T12:29:59;9.30;99.90
6106;DHT22;3083;51.508;7.966;2023-04-24T12:32:28;9.40;99.90
6106;DHT22;3083;51.508;7.966;2023-04-24T12:34:56;9.40;99.90
6106;DHT22;3083;51.508;7.966;2023-04-24T12:37:24;9.40;99.90
6106;DHT22;3083;51.508;7.966;2023-04-24T12:40:02;9.40;99.90
6106;DHT22;3083;51.508;7.966;2023-04-24T12:42:30;9.40;99.90
6106;DHT22;3083;51.508;7.966;2023-04-24T12:44:58;9.40;99.90
6106;DHT22;3083;51.508;7.966;2023-04-24T12:47:27;9.30;99.90
6106;DHT22;3083;51.508;7.966;2023-04-24T12:49:55;9.20;99.90
6106;DHT22;3083;51.508;7.966;2023-04-24T12:52:22;9.10;99.90
6106;DHT22;3083;51.508;7.966;2023-04-24T12:54:53;9.00;99.90
6106;DHT22;3083;51.508;7.966;2023-04-24T12:57:20;9.00;99.90
6106;DHT22;3083;51.508;7.966;2023-04-24T12:59:47;8.90;99.90
6106;DHT22;3083;51.508;7.966;2023-04-24T13:02:14;8.90;99.90
6106;DHT22;3083;51.508;7.966;2023-04-24T13:04:45;8.90;99.90
6106;DHT22;3083;51.508;7.966;2023-04-24T13:07:12;8.80;99.90
6106;DHT22;3083;51.508;7.966;2023-04-24T13:09:40;8.80;99.90
6106;DHT22;3083;51.508;7.966;2023-04-24T13:12:07;8.70;99.90
6106;DHT22;3083;51.508;7.966;2023-04-24T13:14:34;8.80;99.90
6106;DHT22;3083;51.508;7.966;2023-04-24T13:17:01;9.10;99.90
6106;DHT22;3083;51.508;7.966;2023-04-24T13:19:29;9.40;99.90
6106;DHT22;3083;51.508;7.966;2023-04-24T13:22:03;9.90;99.90
6106;DHT22;3083;51.508;7.966;2023-04-24T13:24:30;10.20;99.90
6106;DHT22;3083;51.508;7.966;2023-04-24T13:26:57;10.50;99.90
6106;DHT22;3083;51.508;7.966;2023-04-24T13:29:25;10.70;99.90
6106;DHT22;3083;51.508;7.966;2023-04-24T13:31:53;10.80;99.90
6106;DHT22;3083;51.508;7.966;2023-04-24T13:34:20;10.80;99.90
6106;DHT22;3083;51.508;7.966;2023-04-24T13:36:49;10.60;99.90
6106;DHT22;3083;51.508;7.966;2023-04-24T13:39:17;10.50;99.90
6106;DHT22;3083;51.508;7.966;2023-04-24T13:41:45;10.30;99.90
6106;DHT22;3083;51.508;7.966;2023-04-24T13:44:13;10.00;99.90
6106;DHT22;3083;51.508;7.966;2023-04-24T13:46:40;9.80;99.90
6106;DHT22;3083;51.508;7.966;2023-04-24T13:49:09;9.60;99.90
6106;DHT22;3083;51.508;7.966;2023-04-24T13:51:36;9.40;99.90
6106;DHT22;3083;51.508;7.966;2023-04-24T13:54:03;9.30;99.90
6106;DHT22;3083;51.508;7.966;2023-04-24T13:56:31;9.20;99.90
6106;DHT22;3083;51.508;7.966;2023-04-24T13:58:58;9.20;99.90
6106;DHT22;3083;51.508;7.966;2023-04-24T14:01:25;9.20;99.90
6106;DHT22;3083;51.508;7.966;2023-04-24T14:03:52;9.30;99.90
6106;DHT22;3083;51.508;7.966;2023-04-24T14:06:19;9.50;99.90
6106;DHT22;3083;51.508;7.966;2023-04-24T14:08:46;9.70;99.90
6106;DHT22;3083;51.508;7.966;2023-04-24T14:11:13;9.80;99.90
6106;DHT22;3083;51.508;7.966;2023-04-24T14:13:42;9.90;99.90
6106;DHT22;3083;51.508;7.966;2023-04-24T14:16:10;9.90;99.90
6106;DHT22;3083;51.508;7.966;2023-04-24T14:18:37;9.90;99.90
6106;DHT22;3083;51.508;7.966;2023-04-24T14:21:04;9.80;99.90
6106;DHT22;3083;51.508;7.966;2023-04-24T14:23:31;9.70;99.90
6106;DHT22;3083;51.508;7.966;2023-04-24T14:25:58;9.70;99.90
6106;DHT22;3083;51.508;7.966;2023-04-24T14:28:25;9.60;99.90
6106;DHT22;3083;51.508;7.966;2023-04-24T14:30:54;9.60;99.90
6106;DHT22;3083;51.508;7.966;2023-04-24T14:33:21;9.50;99.90
6106;DHT22;3083;51.508;7.966;2023-04-24T14:35:48;9.50;99.90
6106;DHT22;3083;51.508;7.966;2023-04-24T14:38:15;9.50;99.90
6106;DHT22;3083;51.508;7.966;2023-04-24T14:40:41;9.50;99.90
6106;DHT22;3083;51.508;7.966;2023-04-24T14:43:08;9.50;99.90
6106;DHT22;3083;51.508;7.966;2023-04-24T14:45:36;9.50;99.90
6106;DHT22;3083;51.508;7.966;2023-04-24T14:48:05;9.50;99.90
6106;DHT22;3083;51.508;7.966;2023-04-24T14:50:33;9.50;99.90
6106;DHT22;3083;51.508;7.966;2023-04-24T14:53:00;9.50;99.90
6106;DHT22;3083;51.508;7.966;2023-04-24T14:55:27;9.50;99.90
6106;DHT22;3083;51.508;7.966;2023-04-24T14:57:54;9.60;99.90
6106;DHT22;3083;51.508;7.966;2023-04-24T15:00:22;9.60;99.90
6106;DHT22;3083;51.508;7.966;2023-04-24T15:02:49;9.70;99.90
6106;DHT22;3083;51.508;7.966;2023-04-24T15:05:18;9.90;99.90
6106;DHT22;3083;51.508;7.966;2023-04-24T15:07:45;10.00;99.90
6106;DHT22;3083;51.508;7.966;2023-04-24T15:10:12;10.00;99.90
6106;DHT22;3083;51.508;7.966;2023-04-24T15:12:38;10.20;99.90
6106;DHT22;3083;51.508;7.966;2023-04-24T15:15:07;10.30;99.90
6106;DHT22;3083;51.508;7.966;2023-04-24T15:17:34;10.40;99.90
6106;DHT22;3083;51.508;7.966;2023-04-24T15:20:01;10.50;99.90
6106;DHT22;3083;51.508;7.966;2023-04-24T15:22:30;10.50;99.90
6106;DHT22;3083;51.508;7.966;2023-04-24T15:24:57;10.60;99.90
6106;DHT22;3083;51.508;7.966;2023-04-24T15:27:24;10.60;99.90
6106;DHT22;3083;51.508;7.966;2023-04-24T15:29:51;10.50;99.90
6106;DHT22;3083;51.508;7.966;2023-04-24T15:32:19;10.50;99.90
6106;DHT22;3083;51.508;7.966;2023-04-24T15:34:45;10.40;99.90
6106;DHT22;3083;51.508;7.966;2023-04-24T15:37:12;10.20;99.90
6106;DHT22;3083;51.508;7.966;2023-04-24T15:39:41;10.10;99.90
6106;DHT22;3083;51.508;7.966;2023-04-24T15:42:11;10.10;99.90
6106;DHT22;3083;51.508;7.966;2023-04-24T15:44:37;10.00;99.90
6106;DHT22;3083;51.508;7.966;2023-04-24T15:47:04;9.90;99.90
6106;DHT22;3083;51.508;7.966;2023-04-24T15:49:31;9.80;99.90
6106;DHT22;3083;51.508;7.966;2023-04-24T15:51:58;9.70;99.90
6106;DHT22;3083;51.508;7.966;2023-04-24T15:54:25;9.60;99.90
6106;DHT22;3083;51.508;7.966;2023-04-24T15:56:53;9.50;99.90
6106;DHT22;3083;51.508;7.966;2023-04-24T15:59:20;9.50;99.90
6106;DHT22;3083;51.508;7.966;2023-04-24T16:01:48;9.40;99.90
6106;DHT22;3083;51.508;7.966;2023-04-24T16:04:15;9.40;99.90
6106;DHT22;3083;51.508;7.966;2023-04-24T16:06:42;9.40;99.90
6106;DHT22;3083;51.508;7.966;2023-04-24T16:09:09;9.50;99.90
6106;DHT22;3083;51.508;7.966;2023-04-24T16:11:37;9.50;99.90
6106;DHT22;3083;51.508;7.966;2023-04-24T16:14:06;9.40;99.90
6106;DHT22;3083;51.508;7.966;2023-04-24T16:16:33;9.30;99.90
6106;DHT22;3083;51.508;7.966;2023-04-24T16:19:00;9.30;99.90
6106;DHT22;3083;51.508;7.966;2023-04-24T16:21:27;9.30;99.90
6106;DHT22;3083;51.508;7.966;2023-04-24T16:23:54;9.40;99.90
6106;DHT22;3083;51.508;7.966;2023-04-24T16:26:21;9.50;99.90
6106;DHT22;3083;51.508;7.966;2023-04-24T16:28:48;9.70;99.90
6106;DHT22;3083;51.508;7.966;2023-04-24T16:31:16;9.90;99.90
6106;DHT22;3083;51.508;7.966;2023-04-24T16:33:43;10.00;99.90
6106;DHT22;3083;51.508;7.966;2023-04-24T16:36:10;10.00;99.90
6106;DHT22;3083;51.508;7.966;2023-04-24T16:38:39;10.00;99.90
6106;DHT22;3083;51.508;7.966;2023-04-24T16:41:06;9.90;99.90
6106;DHT22;3083;51.508;7.966;2023-04-24T16:43:33;9.80;99.90
6106;DHT22;3083;51.508;7.966;2023-04-24T16:46:00;9.80;99.90
6106;DHT22;3083;51.508;7.966;2023-04-24T16:48:31;9.70;99.90
6106;DHT22;3083;51.508;7.966;2023-04-24T16:50:58;9.70;99.90
6106;DHT22;3083;51.508;7.966;2023-04-24T16:53:24;9.80;99.90
6106;DHT22;3083;51.508;7.966;2023-04-24T16:55:52;9.90;99.90
6106;DHT22;3083;51.508;7.966;2023-04-24T16:58:19;9.90;99.90
6106;DHT22;3083;51.508;7.966;2023-04-24T17:00:45;10.00;99.90
6106;DHT22;3083;51.508;7.966;2023-04-24T17:03:13;10.00;99.90
6106;DHT22;3083;51.508;7.966;2023-04-24T17:05:41;9.90;99.90
6106;DHT22;3083;51.508;7.966;2023-04-24T17:08:08;9.80;99.90
6106;DHT22;3083;51.508;7.966;2023-04-24T17:10:35;9.70;99.90
6106;DHT22;3083;51.508;7.966;2023-04-24T17:13:02;9.70;99.90
6106;DHT22;3083;51.508;7.966;2023-04-24T17:15:29;9.70;99.90
6106;DHT22;3083;51.508;7.966;2023-04-24T17:17:56;9.60;99.90
6106;DHT22;3083;51.508;7.966;2023-04-24T17:20:23;9.60;99.90
6106;DHT22;3083;51.508;7.966;2023-04-24T17:22:51;9.50;99.90
6106;DHT22;3083;51.508;7.966;2023-04-24T17:25:18;9.50;99.90
6106;DHT22;3083;51.508;7.966;2023-04-24T17:27:45;9.50;99.90
6106;DHT22;3083;51.508;7.966;2023-04-24T17:30:13;9.50;99.90
6106;DHT22;3083;51.508;7.966;2023-04-24T17:32:42;9.40;99.90
6106;DHT22;3083;51.508;7.966;2023-04-24T17:35:09;9.40;99.90
6106;DHT22;3083;51.508;7.966;2023-04-24T17:37:36;9.40;99.90
6106;DHT22;3083;51.508;7.966;2023-04-24T17:40:06;9.30;99.90
6106;DHT22;3083;51.508;7.966;2023-04-24T17:42:33;9.30;99.90
6106;DHT22;3083;51.508;7.966;2023-04-24T17:45:00;9.20;99.90
6106;DHT22;3083;51.508;7.966;2023-04-24T17:47:28;9.20;99.90
6106;DHT22;3083;51.508;7.966;2023-04-24T17:49:55;9.20;99.90
6106;DHT22;3083;51.508;7.966;2023-04-24T17:52:22;9.10;99.90
6106;DHT22;3083;51.508;7.966;2023-04-24T17:54:49;9.10;99.90
6106;DHT22;3083;51.508;7.966;2023-04-24T17:57:17;9.10;99.90
6106;DHT22;3083;51.508;7.966;2023-04-24T17:59:44;9.10;99.90
6106;DHT22;3083;51.508;7.966;2023-04-24T18:02:11;9.00;99.90
6106;DHT22;3083;51.508;7.966;2023-04-24T18:04:38;9.00;99.90
6106;DHT22;3083;51.508;7.966;2023-04-24T18:07:07;8.90;99.90
6106;DHT22;3083;51.508;7.966;2023-04-24T18:09:34;8.90;99.90
6106;DHT22;3083;51.508;7.966;2023-04-24T18:12:01;8.90;99.90
6106;DHT22;3083;51.508;7.966;2023-04-24T18:14:29;8.90;99.90
6106;DHT22;3083;51.508;7.966;2023-04-24T18:16:56;8.90;99.90
6106;DHT22;3083;51.508;7.966;2023-04-24T18:19:23;8.90;99.90
6106;DHT22;3083;51.508;7.966;2023-04-24T18:21:50;8.90;99.90
6106;DHT22;3083;51.508;7.966;2023-04-24T18:24:17;8.80;99.90
6106;DHT22;3083;51.508;7.966;2023-04-24T18:26:46;8.80;99.90
6106;DHT22;3083;51.508;7.966;2023-04-24T18:29:13;8.70;99.90
6106;DHT22;3083;51.508;7.966;2023-04-24T18:31:41;8.70;99.90
6106;DHT22;3083;51.508;7.966;2023-04-24T18:34:08;8.70;99.90
6106;DHT22;3083;51.508;7.966;2023-04-24T18:36:35;8.60;99.90
6106;DHT22;3083;51.508;7.966;2023-04-24T18:39:02;8.60;99.90
6106;DHT22;3083;51.508;7.966;2023-04-24T18:41:29;8.60;99.90
6106;DHT22;3083;51.508;7.966;2023-04-24T18:43:56;8.50;99.90
6106;DHT22;3083;51.508;7.966;2023-04-24T18:46:23;8.50;99.90
6106;DHT22;3083;51.508;7.966;2023-04-24T18:48:52;8.40;99.90
6106;DHT22;3083;51.508;7.966;2023-04-24T18:51:19;8.40;99.90
6106;DHT22;3083;51.508;7.966;2023-04-24T18:53:46;8.30;99.90
6106;DHT22;3083;51.508;7.966;2023-04-24T18:56:12;8.30;99.90
6106;DHT22;3083;51.508;7.966;2023-04-24T18:58:40;8.20;99.90
6106;DHT22;3083;51.508;7.966;2023-04-24T19:01:10;8.20;99.90
6106;DHT22;3083;51.508;7.966;2023-04-24T19:03:38;8.20;99.90
6106;DHT22;3083;51.508;7.966;2023-04-24T19:06:06;8.10;99.90
6106;DHT22;3083;51.508;7.966;2023-04-24T19:08:33;8.10;99.90
6106;DHT22;3083;51.508;7.966;2023-04-24T19:11:03;8.10;99.90
6106;DHT22;3083;51.508;7.966;2023-04-24T19:13:30;8.00;99.90
6106;DHT22;3083;51.508;7.966;2023-04-24T19:15:56;8.00;99.90
6106;DHT22;3083;51.508;7.966;2023-04-24T19:18:23;7.90;99.90
6106;DHT22;3083;51.508;7.966;2023-04-24T19:20:50;7.80;99.90
6106;DHT22;3083;51.508;7.966;2023-04-24T19:23:19;7.70;99.90
6106;DHT22;3083;51.508;7.966;2023-04-24T19:25:46;7.70;99.90
6106;DHT22;3083;51.508;7.966;2023-04-24T19:28:13;7.60;99.90
6106;DHT22;3083;51.508;7.966;2023-04-24T19:30:40;7.50;99.90
6106;DHT22;3083;51.508;7.966;2023-04-24T19:33:07;7.50;99.90
6106;DHT22;3083;51.508;7.966;2023-04-24T19:35:34;7.40;99.90
6106;DHT22;3083;51.508;7.966;2023-04-24T19:38:02;7.30;99.90
6106;DHT22;3083;51.508;7.966;2023-04-24T19:40:30;7.30;99.90
6106;DHT22;3083;51.508;7.966;2023-04-24T19:42:57;7.20;99.90
6106;DHT22;3083;51.508;7.966;2023-04-24T19:45:24;7.10;99.90
6106;DHT22;3083;51.508;7.966;2023-04-24T19:47:51;7.10;99.90
6106;DHT22;3083;51.508;7.966;2023-04-24T19:50:19;7.00;99.90
6106;DHT22;3083;51.508;7.966;2023-04-24T19:52:45;6.90;99.90
6106;DHT22;3083;51.508;7.966;2023-04-24T19:55:12;6.90;99.90
6106;DHT22;3083;51.508;7.966;2023-04-24T19:57:41;6.80;99.90
6106;DHT22;3083;51.508;7.966;2023-04-24T20:00:08;6.70;99.90
6106;DHT22;3083;51.508;7.966;2023-04-24T20:02:35;6.70;99.90
6106;DHT22;3083;51.508;7.966;2023-04-24T20:05:03;6.60;99.90
6106;DHT22;3083;51.508;7.966;2023-04-24T20:07:30;6.50;99.90
6106;DHT22;3083;51.508;7.966;2023-04-24T20:09:57;6.50;99.90
6106;DHT22;3083;51.508;7.966;2023-04-24T20:12:23;6.40;99.90
6106;DHT22;3083;51.508;7.966;2023-04-24T20:14:52;6.40;99.90
6106;DHT22;3083;51.508;7.966;2023-04-24T20:17:19;6.30;99.90
6106;DHT22;3083;51.508;7.966;2023-04-24T20:19:45;6.30;99.90
6106;DHT22;3083;51.508;7.966;2023-04-24T20:22:12;6.20;99.90
6106;DHT22;3083;51.508;7.966;2023-04-24T20:24:39;6.20;99.90
6106;DHT22;3083;51.508;7.966;2023-04-24T20:27:06;6.10;99.90
6106;DHT22;3083;51.508;7.966;2023-04-24T20:29:33;6.10;99.90
6106;DHT22;3083;51.508;7.966;2023-04-24T20:32:02;6.00;99.90
6106;DHT22;3083;51.508;7.966;2023-04-24T20:34:29;6.00;99.90
6106;DHT22;3083;51.508;7.966;2023-04-24T20:36:55;6.00;99.90
6106;DHT22;3083;51.508;7.966;2023-04-24T20:39:23;5.90;99.90
6106;DHT22;3083;51.508;7.966;2023-04-24T20:41:50;5.90;99.90
6106;DHT22;3083;51.508;7.966;2023-04-24T20:44:17;5.90;99.90
6106;DHT22;3083;51.508;7.966;2023-04-24T20:46:44;5.90;99.90
6106;DHT22;3083;51.508;7.966;2023-04-24T20:49:13;5.90;99.90
6106;DHT22;3083;51.508;7.966;2023-04-24T20:51:39;5.90;99.90
6106;DHT22;3083;51.508;7.966;2023-04-24T20:54:07;5.80;99.90
6106;DHT22;3083;51.508;7.966;2023-04-24T20:56:33;5.80;99.90
6106;DHT22;3083;51.508;7.966;2023-04-24T20:59:00;5.80;99.90
6106;DHT22;3083;51.508;7.966;2023-04-24T21:01:27;5.90;99.90
6106;DHT22;3083;51.508;7.966;2023-04-24T21:03:55;5.90;99.90
6106;DHT22;3083;51.508;7.966;2023-04-24T21:06:23;5.90;99.90
6106;DHT22;3083;51.508;7.966;2023-04-24T21:08:50;6.00;99.90
6106;DHT22;3083;51.508;7.966;2023-04-24T21:11:17;6.00;99.90
6106;DHT22;3083;51.508;7.966;2023-04-24T21:13:44;6.00;99.90
6106;DHT22;3083;51.508;7.966;2023-04-24T21:16:11;6.00;99.90
6106;DHT22;3083;51.508;7.966;2023-04-24T21:18:37;6.10;99.90
6106;DHT22;3083;51.508;7.966;2023-04-24T21:21:06;6.10;99.90
6106;DHT22;3083;51.508;7.966;2023-04-24T21:23:34;6.10;99.90
6106;DHT22;3083;51.508;7.966;2023-04-24T21:26:01;6.20;99.90
6106;DHT22;3083;51.508;7.966;2023-04-24T21:28:29;6.20;99.90
6106;DHT22;3083;51.508;7.966;2023-04-24T21:30:56;6.20;99.90
6106;DHT22;3083;51.508;7.966;2023-04-24T21:33:23;6.20;99.90
6106;DHT22;3083;51.508;7.966;2023-04-24T21:35:50;6.10;99.90
6106;DHT22;3083;51.508;7.966;2023-04-24T21:38:17;6.00;99.90
6106;DHT22;3083;51.508;7.966;2023-04-24T21:40:48;6.00;99.90
6106;DHT22;3083;51.508;7.966;2023-04-24T21:43:16;5.90;99.90
6106;DHT22;3083;51.508;7.966;2023-04-24T21:45:43;5.90;99.90
6106;DHT22;3083;51.508;7.966;2023-04-24T21:48:09;5.80;99.90
6106;DHT22;3083;51.508;7.966;2023-04-24T21:50:36;5.80;99.90
6106;DHT22;3083;51.508;7.966;2023-04-24T21:53:03;5.70;99.90
6106;DHT22;3083;51.508;7.966;2023-04-24T21:55:30;5.70;99.90
6106;DHT22;3083;51.508;7.966;2023-04-24T21:57:59;5.70;99.90
6106;DHT22;3083;51.508;7.966;2023-04-24T22:00:26;5.70;99.90
6106;DHT22;3083;51.508;7.966;2023-04-24T22:02:53;5.70;99.90
6106;DHT22;3083;51.508;7.966;2023-04-24T22:05:20;5.70;99.90
6106;DHT22;3083;51.508;7.966;2023-04-24T22:07:46;5.70;99.90
6106;DHT22;3083;51.508;7.966;2023-04-24T22:10:14;5.70;99.90
6106;DHT22;3083;51.508;7.966;2023-04-24T22:12:42;5.60;99.90